#dbistima — V2PX5 — position and weather

sailwx.info

Track history (hours):
 
Tides and Currents Weather Stations Pressure Air Temp Water Temp Dewpoint Dewpoint Depression Visibility Wind Speed Wind Dir Waves Ship Positions

#dbistima

Last reported at 2016-May-02 02:33 UTC. Time now 2016-May-05 04:46 UTC.
Position N 55°26' E 010°25'.

MMSI: 304010972.

Date/timePositionNaut miles runAvg speedWind from/ knotsBaromVisibWave heightAir tempDewpointWater temp
2016-May-02 02:33N 55°26' E 010°25'5 5.1
2016-May-02 01:33N 55°29' E 010°33'8 8.0
2016-May-02 00:33N 55°37' E 010°33'9 9.6
2016-May-01 23:33N 55°43' E 010°46'9 9.0
2016-May-01 22:31N 55°52' E 010°52'12 9.1
2016-May-01 21:10N 56°02' E 011°05'9 9.3
2016-May-01 20:10N 56°11' E 011°05'8 9.6
2016-May-01 19:17N 56°20' E 011°05'74 9.4
2016-May-01 11:25N 57°32' E 010°44'12 9.7
2016-May-01 10:13N 57°44' E 010°45'6 8.6
2016-May-01 09:33N 57°46' E 010°35'12410.7
2016-Apr-30 22:03N 57°43' E 006°44'14 9.2
2016-Apr-30 20:33N 57°50' E 006°21'10 9.9
2016-Apr-30 19:33N 57°56' E 006°08'10 9.9
2016-Apr-30 18:33N 58°03' E 005°54'19 8.7
2016-Apr-30 16:21N 58°20' E 005°35'7 8.2
2016-Apr-30 15:31N 58°26' E 005°33'8 7.5
2016-Apr-30 14:28N 58°34' E 005°30'6 7.0
2016-Apr-30 13:33N 58°40' E 005°27'8 7.5
2016-Apr-30 12:33N 58°48' E 005°27'10 9.7
2016-Apr-30 11:33N 58°57' E 005°32'7 6.6
2016-Apr-30 10:33N 59°01' E 005°42'7 6.7
2016-Apr-30 09:28N 59°05' E 005°54'0 0.0
2016-Apr-30 08:31N 59°05' E 005°54'0 0.0
2016-Apr-30 07:31N 59°05' E 005°54'0 0.0
2016-Apr-30 06:31N 59°05' E 005°54'0 0.0
2016-Apr-30 05:31N 59°05' E 005°54'0 0.0
2016-Apr-30 04:31N 59°05' E 005°54'0 0.0
2016-Apr-30 03:33N 59°05' E 005°54'0 0.0
2016-Apr-30 02:33N 59°05' E 005°54'0 0.0
2016-Apr-30 01:33N 59°05' E 005°54'0 0.0
2016-Apr-30 00:33N 59°05' E 005°54'0 0.0
2016-Apr-29 23:33N 59°05' E 005°54'0 0.0
2016-Apr-29 22:33N 59°05' E 005°54'1 0.9
2016-Apr-29 21:33N 59°05' E 005°53'9 9.4
2016-Apr-29 20:34N 59°02' E 005°35'1111.1
2016-Apr-29 19:33N 58°52' E 005°31'7 7.3
2016-Apr-29 18:33N 58°45' E 005°25'4 4.1
2016-Apr-29 17:33N 58°41' E 005°22'2 1.8
2016-Apr-29 16:33N 58°43' E 005°24'3 3.0
2016-Apr-29 15:33N 58°40' E 005°22'8 7.9
2016-Apr-29 14:33N 58°32' E 005°18'25711.5
2016-Apr-28 16:11N 54°15' E 005°11'711.4
2016-Apr-28 15:33N 54°08' E 005°10'1111.0
2016-Apr-28 14:32N 53°57' E 005°04'1311.0
2016-Apr-28 13:22N 53°45' E 004°56'3711.4
2016-Apr-28 10:05N 53°11' E 004°31'812.5
2016-Apr-28 09:25N 53°03' E 004°25'9011.3
2016-Apr-28 01:30N 51°44' E 003°16'9 9.7
2016-Apr-28 00:33N 51°36' E 003°23'9 9.4
2016-Apr-27 23:33N 51°28' E 003°31'8 8.1
2016-Apr-27 22:33N 51°24' E 003°43'10 9.5
2016-Apr-27 21:33N 51°25' E 003°58'10 9.7
2016-Apr-27 20:33N 51°23' E 004°13'8 7.8
2016-Apr-27 19:33N 51°17' E 004°20'0 0.0
2016-Apr-27 18:33N 51°17' E 004°20'2 2.2
2016-Apr-27 17:33N 51°15' E 004°22'0 0.0
2016-Apr-27 16:34N 51°15' E 004°22'0 0.0
2016-Apr-27 15:34N 51°15' E 004°22'0 0.0
2016-Apr-27 14:34N 51°15' E 004°22'0 0.0
2016-Apr-27 13:34N 51°15' E 004°22'0 0.0
2016-Apr-27 12:34N 51°15' E 004°22'0 0.0
2016-Apr-27 11:34N 51°15' E 004°22'0 0.0
2016-Apr-27 10:33N 51°15' E 004°22'0 0.0
2016-Apr-27 09:34N 51°15' E 004°22'0 0.0
2016-Apr-27 08:34N 51°15' E 004°22'0 0.0
2016-Apr-27 07:34N 51°15' E 004°22'0 0.0
2016-Apr-27 06:34N 51°15' E 004°22'0 0.0
2016-Apr-27 05:34N 51°15' E 004°22'0 0.0
2016-Apr-27 04:34N 51°15' E 004°22'0 0.0
2016-Apr-27 03:34N 51°15' E 004°22'0 0.0
2016-Apr-27 02:34N 51°15' E 004°22'0 0.0
2016-Apr-27 01:33N 51°15' E 004°22'0 0.0
2016-Apr-27 00:34N 51°15' E 004°22'0 0.0
2016-Apr-26 23:34N 51°15' E 004°22'0 0.0
2016-Apr-26 22:34N 51°15' E 004°22'0 0.0
2016-Apr-26 21:34N 51°15' E 004°22'0 0.0
2016-Apr-26 20:34N 51°15' E 004°22'0 0.0
2016-Apr-26 19:34N 51°15' E 004°22'0 0.0
2016-Apr-26 18:34N 51°15' E 004°22'0 0.0
2016-Apr-26 17:34N 51°15' E 004°22'0 0.0
2016-Apr-26 16:34N 51°15' E 004°22'0 0.0
2016-Apr-26 15:34N 51°15' E 004°22'0 0.0
2016-Apr-26 14:34N 51°15' E 004°22'0 0.0
2016-Apr-26 13:34N 51°15' E 004°22'0 0.0
2016-Apr-26 12:34N 51°15' E 004°22'0 0.0
2016-Apr-26 11:34N 51°15' E 004°22'0 0.0
2016-Apr-26 10:33N 51°15' E 004°22'0 0.0
2016-Apr-26 09:34N 51°15' E 004°22'0 0.0
2016-Apr-26 08:34N 51°15' E 004°22'0 0.0
2016-Apr-26 07:34N 51°15' E 004°22'0 0.0
2016-Apr-26 06:34N 51°15' E 004°22'0 0.0
2016-Apr-26 05:34N 51°15' E 004°22'0 0.0
2016-Apr-26 04:34N 51°15' E 004°22'0 0.0
2016-Apr-26 03:34N 51°15' E 004°22'0 0.0
2016-Apr-26 02:34N 51°15' E 004°22'0 0.0
2016-Apr-26 01:34N 51°15' E 004°22'0 0.0
2016-Apr-26 00:34N 51°15' E 004°22'0 0.0
2016-Apr-25 23:34N 51°15' E 004°22'0 0.0
2016-Apr-25 22:34N 51°15' E 004°22'0 0.0
2016-Apr-25 21:34N 51°15' E 004°22'0 0.0
2016-Apr-25 20:34N 51°15' E 004°22'0 0.0
2016-Apr-25 19:34N 51°15' E 004°22'0 0.0
2016-Apr-25 18:34N 51°15' E 004°22'0 0.0
2016-Apr-25 17:34N 51°15' E 004°22'0 0.0
2016-Apr-25 16:34N 51°15' E 004°22'0 0.0
2016-Apr-25 15:34N 51°15' E 004°22'0 0.0
2016-Apr-25 14:34N 51°15' E 004°22'0 0.0
2016-Apr-25 13:34N 51°15' E 004°22'0 0.0
2016-Apr-25 12:34N 51°15' E 004°22'0 0.0
2016-Apr-25 11:34N 51°15' E 004°22'0 0.0
2016-Apr-25 10:33N 51°15' E 004°22'0 0.0
2016-Apr-25 09:33N 51°15' E 004°22'0 0.0
2016-Apr-25 08:33N 51°15' E 004°22'0 0.0
2016-Apr-25 07:33N 51°15' E 004°22'0 0.0
2016-Apr-25 06:33N 51°15' E 004°22'0 0.0
2016-Apr-25 05:33N 51°15' E 004°22'0 0.0
2016-Apr-25 04:33N 51°15' E 004°22'0 0.0
2016-Apr-25 03:33N 51°15' E 004°22'0 0.0
2016-Apr-25 02:33N 51°15' E 004°22'0 0.0
2016-Apr-25 01:33N 51°15' E 004°22'0 0.0
2016-Apr-25 00:33N 51°15' E 004°22'0 0.0
2016-Apr-24 23:33N 51°15' E 004°22'0 0.3
2016-Apr-24 22:33N 51°15' E 004°22'2 2.2
2016-Apr-24 21:33N 51°17' E 004°20'7 7.2
2016-Apr-24 20:33N 51°23' E 004°13'6 6.4
2016-Apr-24 19:33N 51°23' E 004°03'4 3.7
2016-Apr-24 18:33N 51°23' E 003°57'7 6.6
2016-Apr-24 17:33N 51°21' E 003°47'8 8.0
2016-Apr-24 16:33N 51°25' E 003°35'9 9.3
2016-Apr-24 15:33N 51°24' E 003°20'1110.9
2016-Apr-24 14:33N 51°22' E 003°03'1110.8
2016-Apr-24 13:30N 51°22' E 002°45'910.0
2016-Apr-24 12:34N 51°22' E 002°30'21 9.0
2016-Apr-24 10:17N 51°12' E 002°01'5 7.5
2016-Apr-24 09:33N 51°09' E 001°54'7 6.9
2016-Apr-24 08:33N 51°05' E 001°45'7 7.0
2016-Apr-24 07:33N 50°60' E 001°37'7 6.9
2016-Apr-24 06:33N 50°55' E 001°30'66 9.3
2016-Apr-23 23:28N 50°17' E 000°04'1312.3
2016-Apr-23 22:23N 50°14' W 000°16'122 9.5
2016-Apr-23 09:33N 49°48' W 003°22'24 9.9
2016-Apr-23 07:10N 49°49' W 003°59'160 7.4
2016-Apr-22 09:33N 52°11' W 005°53'8 8.0
2016-Apr-22 08:33N 52°19' W 005°52'7 7.5
2016-Apr-22 07:33N 52°27' W 005°51'  
Track history (hours):
 
Tides and Currents Weather Stations Pressure Air Temp Water Temp Dewpoint Dewpoint Depression Visibility Wind Speed Wind Dir Waves Ship Positions

#dbistima

Last reported at 2016-May-02 02:33 UTC. Time now 2016-May-05 04:46 UTC.
Position N 55°26' E 010°25'.

MMSI: 304010972.

Date/timePositionNaut miles runAvg speedWind from/ knotsBaromVisibWave heightAir tempDewpointWater temp
2016-May-02 02:33N 55°26' E 010°25'5 5.1
2016-May-02 01:33N 55°29' E 010°33'8 8.0
2016-May-02 00:33N 55°37' E 010°33'9 9.6
2016-May-01 23:33N 55°43' E 010°46'9 9.0
2016-May-01 22:31N 55°52' E 010°52'12 9.1
2016-May-01 21:10N 56°02' E 011°05'9 9.3
2016-May-01 20:10N 56°11' E 011°05'8 9.6
2016-May-01 19:17N 56°20' E 011°05'74 9.4
2016-May-01 11:25N 57°32' E 010°44'12 9.7
2016-May-01 10:13N 57°44' E 010°45'6 8.6
2016-May-01 09:33N 57°46' E 010°35'12410.7
2016-Apr-30 22:03N 57°43' E 006°44'14 9.2
2016-Apr-30 20:33N 57°50' E 006°21'10 9.9
2016-Apr-30 19:33N 57°56' E 006°08'10 9.9
2016-Apr-30 18:33N 58°03' E 005°54'19 8.7
2016-Apr-30 16:21N 58°20' E 005°35'7 8.2
2016-Apr-30 15:31N 58°26' E 005°33'8 7.5
2016-Apr-30 14:28N 58°34' E 005°30'6 7.0
2016-Apr-30 13:33N 58°40' E 005°27'8 7.5
2016-Apr-30 12:33N 58°48' E 005°27'10 9.7
2016-Apr-30 11:33N 58°57' E 005°32'7 6.6
2016-Apr-30 10:33N 59°01' E 005°42'7 6.7
2016-Apr-30 09:28N 59°05' E 005°54'0 0.0
2016-Apr-30 08:31N 59°05' E 005°54'0 0.0
2016-Apr-30 07:31N 59°05' E 005°54'0 0.0
2016-Apr-30 06:31N 59°05' E 005°54'0 0.0
2016-Apr-30 05:31N 59°05' E 005°54'0 0.0
2016-Apr-30 04:31N 59°05' E 005°54'0 0.0
2016-Apr-30 03:33N 59°05' E 005°54'0 0.0
2016-Apr-30 02:33N 59°05' E 005°54'0 0.0
2016-Apr-30 01:33N 59°05' E 005°54'0 0.0
2016-Apr-30 00:33N 59°05' E 005°54'0 0.0
2016-Apr-29 23:33N 59°05' E 005°54'0 0.0
2016-Apr-29 22:33N 59°05' E 005°54'1 0.9
2016-Apr-29 21:33N 59°05' E 005°53'9 9.4
2016-Apr-29 20:34N 59°02' E 005°35'1111.1
2016-Apr-29 19:33N 58°52' E 005°31'7 7.3
2016-Apr-29 18:33N 58°45' E 005°25'4 4.1
2016-Apr-29 17:33N 58°41' E 005°22'2 1.8
2016-Apr-29 16:33N 58°43' E 005°24'3 3.0
2016-Apr-29 15:33N 58°40' E 005°22'8 7.9
2016-Apr-29 14:33N 58°32' E 005°18'25711.5
2016-Apr-28 16:11N 54°15' E 005°11'711.4
2016-Apr-28 15:33N 54°08' E 005°10'1111.0
2016-Apr-28 14:32N 53°57' E 005°04'1311.0
2016-Apr-28 13:22N 53°45' E 004°56'3711.4
2016-Apr-28 10:05N 53°11' E 004°31'812.5
2016-Apr-28 09:25N 53°03' E 004°25'9011.3
2016-Apr-28 01:30N 51°44' E 003°16'9 9.7
2016-Apr-28 00:33N 51°36' E 003°23'9 9.4
2016-Apr-27 23:33N 51°28' E 003°31'8 8.1
2016-Apr-27 22:33N 51°24' E 003°43'10 9.5
2016-Apr-27 21:33N 51°25' E 003°58'10 9.7
2016-Apr-27 20:33N 51°23' E 004°13'8 7.8
2016-Apr-27 19:33N 51°17' E 004°20'0 0.0
2016-Apr-27 18:33N 51°17' E 004°20'2 2.2
2016-Apr-27 17:33N 51°15' E 004°22'0 0.0
2016-Apr-27 16:34N 51°15' E 004°22'0 0.0
2016-Apr-27 15:34N 51°15' E 004°22'0 0.0
2016-Apr-27 14:34N 51°15' E 004°22'0 0.0
2016-Apr-27 13:34N 51°15' E 004°22'0 0.0
2016-Apr-27 12:34N 51°15' E 004°22'0 0.0
2016-Apr-27 11:34N 51°15' E 004°22'0 0.0
2016-Apr-27 10:33N 51°15' E 004°22'0 0.0
2016-Apr-27 09:34N 51°15' E 004°22'0 0.0
2016-Apr-27 08:34N 51°15' E 004°22'0 0.0
2016-Apr-27 07:34N 51°15' E 004°22'0 0.0
2016-Apr-27 06:34N 51°15' E 004°22'0 0.0
2016-Apr-27 05:34N 51°15' E 004°22'0 0.0
2016-Apr-27 04:34N 51°15' E 004°22'0 0.0
2016-Apr-27 03:34N 51°15' E 004°22'0 0.0
2016-Apr-27 02:34N 51°15' E 004°22'0 0.0
2016-Apr-27 01:33N 51°15' E 004°22'0 0.0
2016-Apr-27 00:34N 51°15' E 004°22'0 0.0
2016-Apr-26 23:34N 51°15' E 004°22'0 0.0
2016-Apr-26 22:34N 51°15' E 004°22'0 0.0
2016-Apr-26 21:34N 51°15' E 004°22'0 0.0
2016-Apr-26 20:34N 51°15' E 004°22'0 0.0
2016-Apr-26 19:34N 51°15' E 004°22'0 0.0
2016-Apr-26 18:34N 51°15' E 004°22'0 0.0
2016-Apr-26 17:34N 51°15' E 004°22'0 0.0
2016-Apr-26 16:34N 51°15' E 004°22'0 0.0
2016-Apr-26 15:34N 51°15' E 004°22'0 0.0
2016-Apr-26 14:34N 51°15' E 004°22'0 0.0
2016-Apr-26 13:34N 51°15' E 004°22'0 0.0
2016-Apr-26 12:34N 51°15' E 004°22'0 0.0
2016-Apr-26 11:34N 51°15' E 004°22'0 0.0
2016-Apr-26 10:33N 51°15' E 004°22'0 0.0
2016-Apr-26 09:34N 51°15' E 004°22'0 0.0
2016-Apr-26 08:34N 51°15' E 004°22'0 0.0
2016-Apr-26 07:34N 51°15' E 004°22'0 0.0
2016-Apr-26 06:34N 51°15' E 004°22'0 0.0
2016-Apr-26 05:34N 51°15' E 004°22'0 0.0
2016-Apr-26 04:34N 51°15' E 004°22'0 0.0
2016-Apr-26 03:34N 51°15' E 004°22'0 0.0
2016-Apr-26 02:34N 51°15' E 004°22'0 0.0
2016-Apr-26 01:34N 51°15' E 004°22'0 0.0
2016-Apr-26 00:34N 51°15' E 004°22'0 0.0
2016-Apr-25 23:34N 51°15' E 004°22'0 0.0
2016-Apr-25 22:34N 51°15' E 004°22'0 0.0
2016-Apr-25 21:34N 51°15' E 004°22'0 0.0
2016-Apr-25 20:34N 51°15' E 004°22'0 0.0
2016-Apr-25 19:34N 51°15' E 004°22'0 0.0
2016-Apr-25 18:34N 51°15' E 004°22'0 0.0
2016-Apr-25 17:34N 51°15' E 004°22'0 0.0
2016-Apr-25 16:34N 51°15' E 004°22'0 0.0
2016-Apr-25 15:34N 51°15' E 004°22'0 0.0
2016-Apr-25 14:34N 51°15' E 004°22'0 0.0
2016-Apr-25 13:34N 51°15' E 004°22'0 0.0
2016-Apr-25 12:34N 51°15' E 004°22'0 0.0
2016-Apr-25 11:34N 51°15' E 004°22'0 0.0
2016-Apr-25 10:33N 51°15' E 004°22'0 0.0
2016-Apr-25 09:33N 51°15' E 004°22'0 0.0
2016-Apr-25 08:33N 51°15' E 004°22'0 0.0
2016-Apr-25 07:33N 51°15' E 004°22'0 0.0
2016-Apr-25 06:33N 51°15' E 004°22'0 0.0
2016-Apr-25 05:33N 51°15' E 004°22'0 0.0
2016-Apr-25 04:33N 51°15' E 004°22'0 0.0
2016-Apr-25 03:33N 51°15' E 004°22'0 0.0
2016-Apr-25 02:33N 51°15' E 004°22'0 0.0
2016-Apr-25 01:33N 51°15' E 004°22'0 0.0
2016-Apr-25 00:33N 51°15' E 004°22'0 0.0
2016-Apr-24 23:33N 51°15' E 004°22'0 0.3
2016-Apr-24 22:33N 51°15' E 004°22'2 2.2
2016-Apr-24 21:33N 51°17' E 004°20'7 7.2
2016-Apr-24 20:33N 51°23' E 004°13'6 6.4
2016-Apr-24 19:33N 51°23' E 004°03'4 3.7
2016-Apr-24 18:33N 51°23' E 003°57'7 6.6
2016-Apr-24 17:33N 51°21' E 003°47'8 8.0
2016-Apr-24 16:33N 51°25' E 003°35'9 9.3
2016-Apr-24 15:33N 51°24' E 003°20'1110.9
2016-Apr-24 14:33N 51°22' E 003°03'1110.8
2016-Apr-24 13:30N 51°22' E 002°45'910.0
2016-Apr-24 12:34N 51°22' E 002°30'21 9.0
2016-Apr-24 10:17N 51°12' E 002°01'5 7.5
2016-Apr-24 09:33N 51°09' E 001°54'7 6.9
2016-Apr-24 08:33N 51°05' E 001°45'7 7.0
2016-Apr-24 07:33N 50°60' E 001°37'7 6.9
2016-Apr-24 06:33N 50°55' E 001°30'66 9.3
2016-Apr-23 23:28N 50°17' E 000°04'1312.3
2016-Apr-23 22:23N 50°14' W 000°16'122 9.5
2016-Apr-23 09:33N 49°48' W 003°22'24 9.9
2016-Apr-23 07:10N 49°49' W 003°59'160 7.4
2016-Apr-22 09:33N 52°11' W 005°53'8 8.0
2016-Apr-22 08:33N 52°19' W 005°52'7 7.5
2016-Apr-22 07:33N 52°27' W 005°51'  

Dump ship's entire track history